sensor_id;sensor_type;location;lat;lon;timestamp;pressure;altitude;pressure_sealevel;temperature;humidity
10079;BME280;5078;42.544;22.966;2023-02-11T00:00:31;95505.09;;;-4.43;93.77
10079;BME280;5078;42.544;22.966;2023-02-11T00:02:58;95495.94;;;-4.55;95.90
10079;BME280;5078;42.544;22.966;2023-02-11T00:05:24;95492.59;;;-4.57;97.15
10079;BME280;5078;42.544;22.966;2023-02-11T00:07:51;95499.69;;;-4.65;97.17
10079;BME280;5078;42.544;22.966;2023-02-11T00:10:19;95505.53;;;-4.88;99.51
10079;BME280;5078;42.544;22.966;2023-02-11T00:12:46;95502.56;;;-4.74;100.00
10079;BME280;5078;42.544;22.966;2023-02-11T00:15:13;95515.88;;;-4.88;100.00
10079;BME280;5078;42.544;22.966;2023-02-11T00:17:39;95505.53;;;-5.19;100.00
10079;BME280;5078;42.544;22.966;2023-02-11T00:20:07;95504.41;;;-5.09;100.00
10079;BME280;5078;42.544;22.966;2023-02-11T00:22:34;95502.34;;;-4.97;100.00
10079;BME280;5078;42.544;22.966;2023-02-11T00:25:01;95506.59;;;-5.26;100.00
10079;BME280;5078;42.544;22.966;2023-02-11T00:27:29;95488.06;;;-5.11;100.00
10079;BME280;5078;42.544;22.966;2023-02-11T00:29:56;95507.94;;;-5.13;100.00
10079;BME280;5078;42.544;22.966;2023-02-11T00:32:24;95448.59;;;-5.49;100.00
10079;BME280;5078;42.544;22.966;2023-02-11T00:34:51;95504.97;;;-5.32;100.00
10079;BME280;5078;42.544;22.966;2023-02-11T00:37:19;95508.41;;;-5.64;100.00
10079;BME280;5078;42.544;22.966;2023-02-11T00:39:46;95505.03;;;-5.33;100.00
10079;BME280;5078;42.544;22.966;2023-02-11T00:42:14;95502.84;;;-5.49;100.00
10079;BME280;5078;42.544;22.966;2023-02-11T00:44:42;95503.63;;;-5.45;100.00
10079;BME280;5078;42.544;22.966;2023-02-11T00:47:09;95502.69;;;-5.43;100.00
10079;BME280;5078;42.544;22.966;2023-02-11T00:49:36;95492.91;;;-5.64;100.00
10079;BME280;5078;42.544;22.966;2023-02-11T00:52:04;95499.50;;;-5.52;100.00
10079;BME280;5078;42.544;22.966;2023-02-11T00:54:31;95505.88;;;-5.66;100.00
10079;BME280;5078;42.544;22.966;2023-02-11T00:56:58;95497.09;;;-5.60;100.00
10079;BME280;5078;42.544;22.966;2023-02-11T00:59:24;95488.13;;;-5.45;100.00
10079;BME280;5078;42.544;22.966;2023-02-11T01:01:53;95475.06;;;-5.73;100.00
10079;BME280;5078;42.544;22.966;2023-02-11T01:04:19;95496.44;;;-5.68;100.00
10079;BME280;5078;42.544;22.966;2023-02-11T01:06:46;95494.47;;;-5.93;100.00
10079;BME280;5078;42.544;22.966;2023-02-11T01:09:13;95496.38;;;-5.99;100.00
10079;BME280;5078;42.544;22.966;2023-02-11T01:11:40;95496.38;;;-5.99;100.00
10079;BME280;5078;42.544;22.966;2023-02-11T01:14:07;95503.44;;;-6.06;100.00
10079;BME280;5078;42.544;22.966;2023-02-11T01:16:34;95496.84;;;-5.85;100.00
10079;BME280;5078;42.544;22.966;2023-02-11T01:19:02;95489.13;;;-5.87;100.00
10079;BME280;5078;42.544;22.966;2023-02-11T01:21:29;95486.03;;;-5.99;100.00
10079;BME280;5078;42.544;22.966;2023-02-11T01:23:55;95471.09;;;-6.22;100.00
10079;BME280;5078;42.544;22.966;2023-02-11T01:26:22;95484.34;;;-5.99;100.00
10079;BME280;5078;42.544;22.966;2023-02-11T01:28:49;95485.25;;;-6.01;100.00
10079;BME280;5078;42.544;22.966;2023-02-11T01:31:16;95482.50;;;-5.94;100.00
10079;BME280;5078;42.544;22.966;2023-02-11T01:33:42;95473.81;;;-5.93;100.00
10079;BME280;5078;42.544;22.966;2023-02-11T01:36:11;95482.94;;;-5.79;100.00
10079;BME280;5078;42.544;22.966;2023-02-11T01:38:38;95491.25;;;-6.01;100.00
10079;BME280;5078;42.544;22.966;2023-02-11T01:41:07;95484.66;;;-6.13;100.00
10079;BME280;5078;42.544;22.966;2023-02-11T01:43:36;95478.44;;;-6.04;100.00
10079;BME280;5078;42.544;22.966;2023-02-11T01:46:13;95489.69;;;-6.08;100.00
10079;BME280;5078;42.544;22.966;2023-02-11T01:48:42;95475.66;;;-5.96;100.00
10079;BME280;5078;42.544;22.966;2023-02-11T01:51:13;95480.97;;;-6.02;100.00
10079;BME280;5078;42.544;22.966;2023-02-11T01:53:43;95471.56;;;-6.07;100.00
10079;BME280;5078;42.544;22.966;2023-02-11T01:56:29;95478.03;;;-6.24;100.00
10079;BME280;5078;42.544;22.966;2023-02-11T01:59:18;95476.25;;;-6.22;100.00
10079;BME280;5078;42.544;22.966;2023-02-11T02:01:52;95426.25;;;-6.54;100.00
10079;BME280;5078;42.544;22.966;2023-02-11T02:04:23;95480.13;;;-6.40;100.00
10079;BME280;5078;42.544;22.966;2023-02-11T02:07:00;95484.19;;;-6.30;100.00
10079;BME280;5078;42.544;22.966;2023-02-11T02:09:33;95480.50;;;-6.20;100.00
10079;BME280;5078;42.544;22.966;2023-02-11T02:12:03;95479.78;;;-6.26;100.00
10079;BME280;5078;42.544;22.966;2023-02-11T02:14:30;95474.06;;;-6.02;100.00
10079;BME280;5078;42.544;22.966;2023-02-11T02:16:57;95474.09;;;-6.03;100.00
10079;BME280;5078;42.544;22.966;2023-02-11T02:19:54;95470.44;;;-6.31;100.00
10079;BME280;5078;42.544;22.966;2023-02-11T02:22:58;95467.63;;;-6.59;100.00
10079;BME280;5078;42.544;22.966;2023-02-11T02:25:52;95477.13;;;-6.61;100.00
10079;BME280;5078;42.544;22.966;2023-02-11T02:28:48;95468.91;;;-6.39;100.00
10079;BME280;5078;42.544;22.966;2023-02-11T02:31:43;95474.69;;;-6.30;100.00
10079;BME280;5078;42.544;22.966;2023-02-11T02:34:24;95474.47;;;-6.58;100.00
10079;BME280;5078;42.544;22.966;2023-02-11T02:36:59;95473.59;;;-6.57;100.00
10079;BME280;5078;42.544;22.966;2023-02-11T02:39:30;95477.88;;;-6.56;100.00
10079;BME280;5078;42.544;22.966;2023-02-11T02:41:59;95474.81;;;-6.73;100.00
10079;BME280;5078;42.544;22.966;2023-02-11T02:44:28;95471.25;;;-6.67;100.00
10079;BME280;5078;42.544;22.966;2023-02-11T02:46:55;95469.06;;;-6.47;100.00
10079;BME280;5078;42.544;22.966;2023-02-11T02:49:23;95467.50;;;-6.53;100.00
10079;BME280;5078;42.544;22.966;2023-02-11T02:52:15;95478.53;;;-6.46;100.00
10079;BME280;5078;42.544;22.966;2023-02-11T02:55:19;95471.38;;;-6.35;100.00
10079;BME280;5078;42.544;22.966;2023-02-11T02:58:10;95474.34;;;-6.52;100.00
10079;BME280;5078;42.544;22.966;2023-02-11T03:00:46;95469.59;;;-6.72;100.00
10079;BME280;5078;42.544;22.966;2023-02-11T03:03:24;95471.44;;;-6.77;100.00
10079;BME280;5078;42.544;22.966;2023-02-11T03:06:00;95471.25;;;-6.67;100.00
10079;BME280;5078;42.544;22.966;2023-02-11T03:08:33;95472.00;;;-6.62;100.00
10079;BME280;5078;42.544;22.966;2023-02-11T03:11:02;95461.69;;;-6.62;100.00
10079;BME280;5078;42.544;22.966;2023-02-11T03:13:33;95454.75;;;-6.60;100.00
10079;BME280;5078;42.544;22.966;2023-02-11T03:16:05;95477.09;;;-6.22;100.00
10079;BME280;5078;42.544;22.966;2023-02-11T03:18:35;95473.84;;;-6.28;100.00
10079;BME280;5078;42.544;22.966;2023-02-11T03:21:07;95474.41;;;-6.17;100.00
10079;BME280;5078;42.544;22.966;2023-02-11T03:23:36;95481.97;;;-6.10;100.00
10079;BME280;5078;42.544;22.966;2023-02-11T03:28:54;95480.84;;;-6.34;100.00
10079;BME280;5078;42.544;22.966;2023-02-11T03:31:26;95474.63;;;-6.26;100.00
10079;BME280;5078;42.544;22.966;2023-02-11T03:33:59;95470.97;;;-6.16;100.00
10079;BME280;5078;42.544;22.966;2023-02-11T03:36:48;95470.63;;;-6.40;100.00
10079;BME280;5078;42.544;22.966;2023-02-11T03:39:20;95483.63;;;-6.44;100.00
10079;BME280;5078;42.544;22.966;2023-02-11T03:41:50;95475.47;;;-6.63;100.00
10079;BME280;5078;42.544;22.966;2023-02-11T03:44:19;95472.75;;;-6.57;100.00
10079;BME280;5078;42.544;22.966;2023-02-11T03:46:48;95470.50;;;-6.73;100.00
10079;BME280;5078;42.544;22.966;2023-02-11T03:49:18;95467.00;;;-6.68;100.00
10079;BME280;5078;42.544;22.966;2023-02-11T03:51:50;95464.75;;;-6.46;100.00
10079;BME280;5078;42.544;22.966;2023-02-11T03:54:22;95469.19;;;-6.52;100.00
10079;BME280;5078;42.544;22.966;2023-02-11T03:56:53;95467.94;;;-6.74;100.00
10079;BME280;5078;42.544;22.966;2023-02-11T03:59:20;95462.59;;;-6.65;100.00
10079;BME280;5078;42.544;22.966;2023-02-11T04:01:47;95472.00;;;-6.62;100.00
10079;BME280;5078;42.544;22.966;2023-02-11T04:04:14;95462.50;;;-6.60;100.00
10079;BME280;5078;42.544;22.966;2023-02-11T04:06:41;95464.69;;;-6.82;100.00
10079;BME280;5078;42.544;22.966;2023-02-11T04:09:10;95456.44;;;-6.59;100.00
10079;BME280;5078;42.544;22.966;2023-02-11T04:11:37;95455.19;;;-6.80;100.00
10079;BME280;5078;42.544;22.966;2023-02-11T04:14:03;95455.53;;;-6.96;100.00
10079;BME280;5078;42.544;22.966;2023-02-11T04:16:30;95456.13;;;-6.84;100.00
10079;BME280;5078;42.544;22.966;2023-02-11T04:18:57;95457.88;;;-6.85;100.00
10079;BME280;5078;42.544;22.966;2023-02-11T04:21:23;95451.13;;;-6.92;100.00
10079;BME280;5078;42.544;22.966;2023-02-11T04:23:50;95455.78;;;-7.08;100.00
10079;BME280;5078;42.544;22.966;2023-02-11T04:26:18;95457.66;;;-7.16;100.00
10079;BME280;5078;42.544;22.966;2023-02-11T04:28:45;95458.34;;;-7.08;100.00
10079;BME280;5078;42.544;22.966;2023-02-11T04:31:12;95460.59;;;-6.91;100.00
10079;BME280;5078;42.544;22.966;2023-02-11T04:33:38;95453.66;;;-6.89;100.00
10079;BME280;5078;42.544;22.966;2023-02-11T04:36:06;95451.22;;;-6.97;100.00
10079;BME280;5078;42.544;22.966;2023-02-11T04:38:33;95454.53;;;-7.32;100.00
10079;BME280;5078;42.544;22.966;2023-02-11T04:40:59;95450.88;;;-7.22;100.00
10079;BME280;5078;42.544;22.966;2023-02-11T04:43:28;95460.28;;;-7.19;100.00
10079;BME280;5078;42.544;22.966;2023-02-11T04:45:56;95451.38;;;-7.03;100.00
10079;BME280;5078;42.544;22.966;2023-02-11T04:48:22;95454.94;;;-7.08;100.00
10079;BME280;5078;42.544;22.966;2023-02-11T04:50:49;95452.22;;;-7.02;100.00
10079;BME280;5078;42.544;22.966;2023-02-11T04:53:16;95452.03;;;-6.93;100.00
10079;BME280;5078;42.544;22.966;2023-02-11T04:55:43;95451.38;;;-7.03;100.00
10079;BME280;5078;42.544;22.966;2023-02-11T04:58:09;95441.13;;;-7.06;100.00
10079;BME280;5078;42.544;22.966;2023-02-11T05:00:37;95457.03;;;-6.87;100.00
10079;BME280;5078;42.544;22.966;2023-02-11T05:03:04;95456.53;;;-7.03;100.00
10079;BME280;5078;42.544;22.966;2023-02-11T05:05:31;95446.03;;;-6.93;100.00
10079;BME280;5078;42.544;22.966;2023-02-11T05:07:58;95454.78;;;-7.02;100.00
10079;BME280;5078;42.544;22.966;2023-02-11T05:10:24;95454.28;;;-6.78;100.00
10079;BME280;5078;42.544;22.966;2023-02-11T05:12:51;95451.50;;;-6.68;100.00
10079;BME280;5078;42.544;22.966;2023-02-11T05:15:18;95449.03;;;-6.73;100.00
10079;BME280;5078;42.544;22.966;2023-02-11T05:17:46;95451.69;;;-6.78;100.00
10079;BME280;5078;42.544;22.966;2023-02-11T05:20:13;95448.97;;;-6.70;100.00
10079;BME280;5078;42.544;22.966;2023-02-11T05:22:40;95442.97;;;-6.70;100.00
10079;BME280;5078;42.544;22.966;2023-02-11T05:25:07;95443.81;;;-7.12;100.00
10079;BME280;5078;42.544;22.966;2023-02-11T05:27:34;95451.06;;;-6.87;100.00
10079;BME280;5078;42.544;22.966;2023-02-11T05:30:00;95445.91;;;-6.87;100.00
10079;BME280;5078;42.544;22.966;2023-02-11T05:32:27;95443.94;;;-6.76;100.00
10079;BME280;5078;42.544;22.966;2023-02-11T05:34:55;95446.28;;;-6.65;100.00
10079;BME280;5078;42.544;22.966;2023-02-11T05:37:22;95450.53;;;-7.03;100.00
10079;BME280;5078;42.544;22.966;2023-02-11T05:39:49;95453.22;;;-7.09;100.00
10079;BME280;5078;42.544;22.966;2023-02-11T05:42:16;95449.78;;;-7.10;100.00
10079;BME280;5078;42.544;22.966;2023-02-11T05:44:42;95453.78;;;-6.93;100.00
10079;BME280;5078;42.544;22.966;2023-02-11T05:47:09;95450.28;;;-7.34;100.00
10079;BME280;5078;42.544;22.966;2023-02-11T05:49:36;95457.28;;;-7.41;100.00
10079;BME280;5078;42.544;22.966;2023-02-11T05:52:04;95457.09;;;-7.30;100.00
10079;BME280;5078;42.544;22.966;2023-02-11T05:54:31;95458.59;;;-7.65;100.00
10079;BME280;5078;42.544;22.966;2023-02-11T05:56:57;95462.16;;;-7.74;100.00
10079;BME280;5078;42.544;22.966;2023-02-11T05:59:24;95457.00;;;-7.27;100.00
10079;BME280;5078;42.544;22.966;2023-02-11T06:01:51;95460.66;;;-7.39;100.00
10079;BME280;5078;42.544;22.966;2023-02-11T06:04:17;95451.94;;;-7.32;100.00
10079;BME280;5078;42.544;22.966;2023-02-11T06:06:45;95456.66;;;-6.68;100.00
10079;BME280;5078;42.544;22.966;2023-02-11T06:09:13;95464.25;;;-6.62;100.00
10079;BME280;5078;42.544;22.966;2023-02-11T06:11:40;95469.81;;;-6.42;100.00
10079;BME280;5078;42.544;22.966;2023-02-11T06:14:06;95460.84;;;-6.25;100.00
10079;BME280;5078;42.544;22.966;2023-02-11T06:16:34;95460.63;;;-5.48;100.00
10079;BME280;5078;42.544;22.966;2023-02-11T06:19:00;95447.66;;;-4.84;100.00
10079;BME280;5078;42.544;22.966;2023-02-11T06:21:27;95451.53;;;-4.13;95.46
10079;BME280;5078;42.544;22.966;2023-02-11T06:23:54;95457.81;;;-3.93;86.83
10079;BME280;5078;42.544;22.966;2023-02-11T06:26:22;95463.13;;;-3.96;84.96
10079;BME280;5078;42.544;22.966;2023-02-11T06:28:49;95462.63;;;-3.81;83.69
10079;BME280;5078;42.544;22.966;2023-02-11T06:31:16;95461.69;;;-3.53;81.66
10079;BME280;5078;42.544;22.966;2023-02-11T06:33:43;95431.00;;;-3.65;79.68
10079;BME280;5078;42.544;22.966;2023-02-11T06:36:14;95462.88;;;-3.37;78.61
10079;BME280;5078;42.544;22.966;2023-02-11T06:38:41;95439.88;;;-4.26;80.83
10079;BME280;5078;42.544;22.966;2023-02-11T06:41:09;95452.53;;;-4.17;85.83
10079;BME280;5078;42.544;22.966;2023-02-11T06:43:37;95462.50;;;-3.51;82.21
10079;BME280;5078;42.544;22.966;2023-02-11T06:46:05;95462.88;;;-3.37;78.08
10079;BME280;5078;42.544;22.966;2023-02-11T06:48:32;95457.72;;;-3.13;77.21
10079;BME280;5078;42.544;22.966;2023-02-11T06:51:00;95453.03;;;-3.02;74.57
10079;BME280;5078;42.544;22.966;2023-02-11T06:53:27;95438.09;;;-3.45;75.18
10079;BME280;5078;42.544;22.966;2023-02-11T06:55:54;95454.41;;;-3.42;74.52
10079;BME280;5078;42.544;22.966;2023-02-11T06:58:21;95465.19;;;-3.54;77.40
10079;BME280;5078;42.544;22.966;2023-02-11T07:00:49;95459.69;;;-3.45;76.29
10079;BME280;5078;42.544;22.966;2023-02-11T07:03:16;95445.75;;;-3.17;77.43
10079;BME280;5078;42.544;22.966;2023-02-11T07:05:43;95459.91;;;-2.54;73.79
10079;BME280;5078;42.544;22.966;2023-02-11T07:08:10;95455.69;;;-2.12;71.60
10079;BME280;5078;42.544;22.966;2023-02-11T07:10:36;95458.41;;;-2.15;68.18
10079;BME280;5078;42.544;22.966;2023-02-11T07:13:03;95456.78;;;-1.74;67.69
10079;BME280;5078;42.544;22.966;2023-02-11T07:15:30;95444.78;;;-1.56;64.13
10079;BME280;5078;42.544;22.966;2023-02-11T07:17:58;95463.06;;;-1.17;60.97
10079;BME280;5078;42.544;22.966;2023-02-11T07:20:25;95459.41;;;-1.13;60.21
10079;BME280;5078;42.544;22.966;2023-02-11T07:22:52;95457.50;;;-0.89;59.14
10079;BME280;5078;42.544;22.966;2023-02-11T07:25:18;95452.25;;;-0.68;57.55
10079;BME280;5078;42.544;22.966;2023-02-11T07:27:45;95446.47;;;-1.14;57.04
10079;BME280;5078;42.544;22.966;2023-02-11T07:30:13;95441.38;;;-0.97;57.98
10079;BME280;5078;42.544;22.966;2023-02-11T07:32:40;95445.19;;;-0.85;58.97
10079;BME280;5078;42.544;22.966;2023-02-11T07:35:08;95442.63;;;-0.66;56.74
10079;BME280;5078;42.544;22.966;2023-02-11T07:37:35;95435.44;;;-0.80;57.62
10079;BME280;5078;42.544;22.966;2023-02-11T07:40:02;95415.44;;;-0.60;57.72
10079;BME280;5078;42.544;22.966;2023-02-11T07:42:29;95428.47;;;-0.60;56.67
10079;BME280;5078;42.544;22.966;2023-02-11T07:44:56;95420.88;;;-0.46;56.45
10079;BME280;5078;42.544;22.966;2023-02-11T07:47:22;95431.34;;;-0.10;54.46
10079;BME280;5078;42.544;22.966;2023-02-11T07:49:49;95436.16;;;-0.57;55.08
10079;BME280;5078;42.544;22.966;2023-02-11T07:52:17;95425.50;;;-0.34;55.55
10079;BME280;5078;42.544;22.966;2023-02-11T07:54:44;95415.66;;;0.09;53.89
10079;BME280;5078;42.544;22.966;2023-02-11T07:57:11;95406.09;;;0.45;52.96
10079;BME280;5078;42.544;22.966;2023-02-11T07:59:38;95411.09;;;0.67;51.75
10079;BME280;5078;42.544;22.966;2023-02-11T08:02:04;95409.09;;;0.72;51.34
10079;BME280;5078;42.544;22.966;2023-02-11T08:04:31;95408.44;;;0.14;51.59
10079;BME280;5078;42.544;22.966;2023-02-11T08:06:58;95404.69;;;0.03;52.69
10079;BME280;5078;42.544;22.966;2023-02-11T08:09:26;95421.06;;;0.41;51.38
10079;BME280;5078;42.544;22.966;2023-02-11T08:11:53;95411.53;;;0.57;50.86
10079;BME280;5078;42.544;22.966;2023-02-11T08:14:19;95416.13;;;0.70;50.33
10079;BME280;5078;42.544;22.966;2023-02-11T08:16:46;95411.28;;;1.30;50.04
10079;BME280;5078;42.544;22.966;2023-02-11T08:19:15;95405.31;;;1.44;48.81
10079;BME280;5078;42.544;22.966;2023-02-11T08:21:42;95401.13;;;1.89;47.68
10079;BME280;5078;42.544;22.966;2023-02-11T08:24:09;95401.69;;;1.94;48.20
10079;BME280;5078;42.544;22.966;2023-02-11T08:26:38;95398.31;;;1.92;48.05
10079;BME280;5078;42.544;22.966;2023-02-11T08:29:07;95398.31;;;2.08;48.08
10079;BME280;5078;42.544;22.966;2023-02-11T08:31:36;95396.34;;;2.27;48.23
10079;BME280;5078;42.544;22.966;2023-02-11T08:34:03;95394.00;;;2.07;47.78
10079;BME280;5078;42.544;22.966;2023-02-11T08:36:32;95394.63;;;1.96;48.35
10079;BME280;5078;42.544;22.966;2023-02-11T08:39:01;95393.22;;;2.21;48.77
10079;BME280;5078;42.544;22.966;2023-02-11T08:41:29;95395.72;;;2.08;48.48
10079;BME280;5078;42.544;22.966;2023-02-11T08:43:58;95393.75;;;2.27;48.54
10079;BME280;5078;42.544;22.966;2023-02-11T08:46:25;95383.28;;;2.57;47.18
10079;BME280;5078;42.544;22.966;2023-02-11T08:48:52;95383.97;;;3.04;46.22
10079;BME280;5078;42.544;22.966;2023-02-11T08:51:20;95386.69;;;3.17;45.48
10079;BME280;5078;42.544;22.966;2023-02-11T08:53:49;95385.94;;;3.29;44.70
10079;BME280;5078;42.544;22.966;2023-02-11T08:56:19;95380.97;;;4.22;42.88
10079;BME280;5078;42.544;22.966;2023-02-11T08:58:47;95377.19;;;4.13;42.52
10079;BME280;5078;42.544;22.966;2023-02-11T09:01:17;95372.09;;;4.24;42.55
10079;BME280;5078;42.544;22.966;2023-02-11T09:03:44;95378.25;;;4.50;42.10
10079;BME280;5078;42.544;22.966;2023-02-11T09:06:12;95369.63;;;4.48;41.72
10079;BME280;5078;42.544;22.966;2023-02-11T09:08:40;95368.28;;;4.16;41.12
10079;BME280;5078;42.544;22.966;2023-02-11T09:11:08;95362.41;;;3.56;39.36
10079;BME280;5078;42.544;22.966;2023-02-11T09:13:35;95357.59;;;4.31;39.82
10079;BME280;5078;42.544;22.966;2023-02-11T09:16:03;95358.97;;;5.03;38.52
10079;BME280;5078;42.544;22.966;2023-02-11T09:18:32;95335.63;;;4.60;37.52
10079;BME280;5078;42.544;22.966;2023-02-11T09:21:01;95328.56;;;4.98;37.75
10079;BME280;5078;42.544;22.966;2023-02-11T09:23:29;95350.44;;;4.86;37.19
10079;BME280;5078;42.544;22.966;2023-02-11T09:25:56;95335.75;;;5.59;36.77
10079;BME280;5078;42.544;22.966;2023-02-11T09:28:23;95345.34;;;6.21;35.74
10079;BME280;5078;42.544;22.966;2023-02-11T09:30:49;95336.63;;;5.34;36.08
10079;BME280;5078;42.544;22.966;2023-02-11T09:33:16;95338.59;;;5.93;36.21
10079;BME280;5078;42.544;22.966;2023-02-11T09:35:44;95334.16;;;6.30;34.40
10079;BME280;5078;42.544;22.966;2023-02-11T09:38:11;95321.69;;;5.97;33.46
10079;BME280;5078;42.544;22.966;2023-02-11T09:40:41;95327.28;;;5.79;33.30
10079;BME280;5078;42.544;22.966;2023-02-11T09:43:10;95320.19;;;5.56;33.40
10079;BME280;5078;42.544;22.966;2023-02-11T09:45:40;95320.47;;;5.77;33.29
10079;BME280;5078;42.544;22.966;2023-02-11T09:48:12;95310.03;;;5.75;33.49
10079;BME280;5078;42.544;22.966;2023-02-11T09:50:44;95314.69;;;6.44;32.95
10079;BME280;5078;42.544;22.966;2023-02-11T09:53:18;95297.66;;;6.83;32.61
10079;BME280;5078;42.544;22.966;2023-02-11T09:55:47;95289.94;;;6.46;33.39
10079;BME280;5078;42.544;22.966;2023-02-11T09:58:24;95297.13;;;5.96;34.38
10079;BME280;5078;42.544;22.966;2023-02-11T10:00:58;95290.47;;;6.39;34.38
10079;BME280;5078;42.544;22.966;2023-02-11T10:03:49;95287.91;;;6.26;32.76
10079;BME280;5078;42.544;22.966;2023-02-11T10:06:43;95285.34;;;5.89;33.90
10079;BME280;5078;42.544;22.966;2023-02-11T10:09:29;95274.53;;;5.57;33.96
10079;BME280;5078;42.544;22.966;2023-02-11T10:12:10;95189.66;;;5.18;33.10
10079;BME280;5078;42.544;22.966;2023-02-11T10:14:52;95265.28;;;5.51;32.84
10079;BME280;5078;42.544;22.966;2023-02-11T10:17:28;95249.22;;;5.91;32.78
10079;BME280;5078;42.544;22.966;2023-02-11T10:20:21;95260.50;;;6.29;32.15
10079;BME280;5078;42.544;22.966;2023-02-11T10:22:53;95240.34;;;6.16;32.59
10079;BME280;5078;42.544;22.966;2023-02-11T10:25:22;95243.34;;;6.47;30.69
10079;BME280;5078;42.544;22.966;2023-02-11T10:27:50;95238.41;;;6.54;31.40
10079;BME280;5078;42.544;22.966;2023-02-11T10:30:25;95229.44;;;7.35;30.88
10079;BME280;5078;42.544;22.966;2023-02-11T10:32:58;95227.56;;;6.92;30.60
10079;BME280;5078;42.544;22.966;2023-02-11T10:35:26;95216.06;;;6.82;30.41
10079;BME280;5078;42.544;22.966;2023-02-11T10:37:54;95205.94;;;5.95;31.67
10079;BME280;5078;42.544;22.966;2023-02-11T10:40:23;95193.25;;;6.24;30.99
10079;BME280;5078;42.544;22.966;2023-02-11T10:42:52;95189.22;;;6.54;30.77
10079;BME280;5078;42.544;22.966;2023-02-11T10:45:24;95189.88;;;6.34;30.96
10079;BME280;5078;42.544;22.966;2023-02-11T10:47:52;95179.63;;;6.42;29.57
10079;BME280;5078;42.544;22.966;2023-02-11T10:50:25;95174.59;;;6.95;29.51
10079;BME280;5078;42.544;22.966;2023-02-11T10:53:11;95166.34;;;7.43;28.99
10079;BME280;5078;42.544;22.966;2023-02-11T10:55:49;95151.94;;;6.70;28.29
10079;BME280;5078;42.544;22.966;2023-02-11T10:58:23;95159.84;;;6.70;29.97
10079;BME280;5078;42.544;22.966;2023-02-11T11:00:52;95139.50;;;6.61;31.13
10079;BME280;5078;42.544;22.966;2023-02-11T11:03:23;95123.19;;;6.78;29.53
10079;BME280;5078;42.544;22.966;2023-02-11T11:05:52;95153.91;;;7.34;29.90
10079;BME280;5078;42.544;22.966;2023-02-11T11:08:36;95154.66;;;7.25;29.08
10079;BME280;5078;42.544;22.966;2023-02-11T11:11:06;95152.94;;;7.24;30.09
10079;BME280;5078;42.544;22.966;2023-02-11T11:13:35;95149.84;;;7.19;29.61
10079;BME280;5078;42.544;22.966;2023-02-11T11:16:20;95144.41;;;7.43;28.73
10079;BME280;5078;42.544;22.966;2023-02-11T11:18:48;95142.75;;;7.30;29.39
10079;BME280;5078;42.544;22.966;2023-02-11T11:21:18;95142.47;;;6.79;29.67
10079;BME280;5078;42.544;22.966;2023-02-11T11:23:50;95123.53;;;7.40;31.01
10079;BME280;5078;42.544;22.966;2023-02-11T11:26:18;95125.47;;;7.70;29.49
10079;BME280;5078;42.544;22.966;2023-02-11T11:28:56;95128.34;;;6.68;30.04
10079;BME280;5078;42.544;22.966;2023-02-11T11:31:28;95112.78;;;6.77;31.72
10079;BME280;5078;42.544;22.966;2023-02-11T11:33:57;95120.66;;;6.99;31.91
10079;BME280;5078;42.544;22.966;2023-02-11T11:36:32;95125.16;;;7.20;31.50
10079;BME280;5078;42.544;22.966;2023-02-11T11:39:03;95116.06;;;7.01;30.84
10079;BME280;5078;42.544;22.966;2023-02-11T11:41:49;95114.88;;;7.17;30.75
10079;BME280;5078;42.544;22.966;2023-02-11T11:44:24;95113.63;;;6.32;30.71
10079;BME280;5078;42.544;22.966;2023-02-11T11:47:04;95112.25;;;6.04;32.59
10079;BME280;5078;42.544;22.966;2023-02-11T11:49:36;95113.03;;;6.40;31.89
10079;BME280;5078;42.544;22.966;2023-02-11T11:52:10;95102.59;;;6.16;32.04
10079;BME280;5078;42.544;22.966;2023-02-11T11:54:46;95108.13;;;6.58;32.23
10079;BME280;5078;42.544;22.966;2023-02-11T11:57:18;95102.09;;;6.78;32.00
10079;BME280;5078;42.544;22.966;2023-02-11T11:59:47;95093.25;;;7.23;31.17
10079;BME280;5078;42.544;22.966;2023-02-11T12:02:33;95093.88;;;7.47;30.57
10079;BME280;5078;42.544;22.966;2023-02-11T12:05:08;95091.91;;;7.61;30.63
10079;BME280;5078;42.544;22.966;2023-02-11T12:07:56;95077.88;;;7.28;29.43
10079;BME280;5078;42.544;22.966;2023-02-11T12:10:33;95079.06;;;7.35;28.88
10079;BME280;5078;42.544;22.966;2023-02-11T12:13:14;95073.66;;;7.04;30.18
10079;BME280;5078;42.544;22.966;2023-02-11T12:15:52;95076.31;;;6.93;30.43
10079;BME280;5078;42.544;22.966;2023-02-11T12:18:29;95036.56;;;6.74;31.21
10079;BME280;5078;42.544;22.966;2023-02-11T12:21:12;95071.47;;;6.43;30.82
10079;BME280;5078;42.544;22.966;2023-02-11T12:23:55;95070.16;;;6.49;31.80
10079;BME280;5078;42.544;22.966;2023-02-11T12:26:30;95066.47;;;5.60;31.81
10079;BME280;5078;42.544;22.966;2023-02-11T12:29:07;95069.91;;;5.60;32.57
10079;BME280;5078;42.544;22.966;2023-02-11T12:31:52;95054.41;;;5.80;31.91
10079;BME280;5078;42.544;22.966;2023-02-11T12:37:44;95056.88;;;6.05;31.92
10079;BME280;5078;42.544;22.966;2023-02-11T12:40:16;95054.31;;;5.93;32.42
10079;BME280;5078;42.544;22.966;2023-02-11T12:42:56;95053.78;;;6.12;32.07
10079;BME280;5078;42.544;22.966;2023-02-11T12:45:57;95048.97;;;5.59;31.86
10079;BME280;5078;42.544;22.966;2023-02-11T12:48:42;95047.56;;;5.66;32.15
10079;BME280;5078;42.544;22.966;2023-02-11T12:51:22;95043.75;;;5.81;32.70
10079;BME280;5078;42.544;22.966;2023-02-11T12:54:16;95045.16;;;6.10;32.14
10079;BME280;5078;42.544;22.966;2023-02-11T12:56:50;95042.16;;;5.56;32.35
10079;BME280;5078;42.544;22.966;2023-02-11T12:59:28;95034.63;;;5.52;32.28
10079;BME280;5078;42.544;22.966;2023-02-11T13:02:00;95039.63;;;5.44;32.52
10079;BME280;5078;42.544;22.966;2023-02-11T13:04:34;95038.19;;;5.39;32.59
10079;BME280;5078;42.544;22.966;2023-02-11T13:07:11;95037.22;;;5.40;33.56
10079;BME280;5078;42.544;22.966;2023-02-11T13:09:44;95022.22;;;5.76;31.60
10079;BME280;5078;42.544;22.966;2023-02-11T13:12:14;95023.19;;;5.75;31.44
10079;BME280;5078;42.544;22.966;2023-02-11T13:15:03;95016.41;;;5.95;31.32
10079;BME280;5078;42.544;22.966;2023-02-11T13:17:35;95004.31;;;6.04;30.80
10079;BME280;5078;42.544;22.966;2023-02-11T13:20:14;95010.31;;;6.17;29.81
10079;BME280;5078;42.544;22.966;2023-02-11T13:22:45;95003.34;;;6.39;30.59
10079;BME280;5078;42.544;22.966;2023-02-11T13:25:21;95009.47;;;6.28;31.50